METAR Data
IDs: Format: Raw Decoded Include TAF

Data at: 1344 UTC 27 Nov 2021

EGGP 271320Z 34022G33KT 9999 FEW036 SCT046 05/M06 Q1006